createdAt,value
2022-08-16T00:29:33.026Z,3.63
2022-08-16T00:59:42.487Z,3.33
2022-08-16T01:30:20.161Z,3.58
2022-08-16T02:00:29.338Z,3.60
2022-08-16T03:00:50.288Z,3.90
2022-08-16T03:30:55.301Z,4.30
2022-08-16T04:00:59.662Z,4.53
2022-08-16T04:31:03.787Z,4.75
2022-08-16T05:01:11.470Z,5.32
2022-08-16T05:31:16.901Z,4.95
2022-08-16T06:01:21.084Z,5.38
2022-08-16T06:31:25.714Z,5.95
2022-08-16T07:01:43.189Z,5.60
2022-08-16T07:31:50.428Z,5.32
2022-08-16T08:01:58.003Z,4.60
2022-08-16T08:32:03.017Z,3.80
2022-08-16T09:02:27.103Z,2.72
2022-08-16T09:32:31.453Z,2.50
2022-08-16T10:02:44.131Z,1.85
2022-08-16T10:32:48.600Z,2.00
2022-08-16T11:02:58.872Z,1.95
2022-08-16T11:33:19.333Z,1.90
2022-08-16T12:03:34.945Z,1.90
2022-08-16T12:33:44.758Z,1.70
2022-08-16T13:03:49.391Z,1.90
2022-08-16T13:34:00.404Z,2.00
2022-08-16T14:04:05.339Z,2.10
2022-08-16T14:34:11.156Z,2.00
2022-08-16T15:04:32.426Z,2.50
2022-08-16T15:34:44.631Z,2.53
2022-08-16T16:04:50.404Z,2.28
2022-08-16T16:34:58.846Z,2.30
2022-08-16T17:05:05.918Z,2.22
2022-08-16T17:35:18.416Z,2.30
2022-08-16T18:05:23.049Z,2.60
2022-08-16T18:35:27.241Z,2.60
2022-08-16T19:05:33.976Z,2.50
2022-08-16T19:35:41.013Z,3.10
2022-08-16T20:05:45.852Z,2.67
2022-08-16T20:35:50.692Z,3.03
2022-08-16T21:05:57.398Z,2.85
2022-08-16T21:36:01.470Z,3.35
2022-08-16T22:06:13.188Z,3.40
2022-08-16T22:36:18.672Z,3.33
2022-08-16T23:06:23.570Z,3.47
2022-08-16T23:36:27.571Z,3.47
